Time;durP1;ratioP1;P1;durP2;ratioP2;P2;SDS_P1;SDS_P2;PMS_P1;PMS_P2;Temp;Humidity;BMP_temperature;BMP_pressure;BME280_temperature;BME280_humidity;BME280_pressure;Samples;Min_cycle;Max_cycle;Signal;HPM_P1;HPM_P2
2022/06/28 00:02:04;;;;;;;15.70;13.45;;;17.90;99.90;;;;;;4956238;28;20197;-73
2022/06/28 00:04:30;;;;;;;18.45;14.60;;;17.90;99.90;;;;;;4973950;28;20670;-72
2022/06/28 00:06:56;;;;;;;17.60;15.32;;;17.80;99.90;;;;;;4974035;28;20548;-72
2022/06/28 00:09:29;;;;;;;16.50;14.73;;;17.80;99.90;;;;;;4954331;28;20221;-72
2022/06/28 00:11:54;;;;;;;17.02;14.13;;;17.80;99.90;;;;;;4975008;28;20263;-70
2022/06/28 00:17:12;;;;;;;17.55;14.10;;;17.80;99.90;;;;;;4974191;28;20714;-69
2022/06/28 00:19:38;;;;;;;17.67;14.00;;;17.80;99.90;;;;;;4973758;28;20205;-72
2022/06/28 00:22:03;;;;;;;16.88;14.25;;;17.80;99.90;;;;;;4973511;28;20630;-70
2022/06/28 00:24:35;;;;;;;15.70;13.80;;;17.80;99.90;;;;;;4973532;28;20180;-71
2022/06/28 00:27:01;;;;;;;17.67;15.20;;;17.80;99.90;;;;;;4971619;28;20193;-72
2022/06/28 00:29:26;;;;;;;17.77;14.90;;;17.70;99.90;;;;;;4972403;28;20323;-72
2022/06/28 00:31:52;;;;;;;17.00;14.30;;;17.70;99.90;;;;;;4971736;28;20192;-71
2022/06/28 00:34:18;;;;;;;17.65;14.35;;;17.70;99.90;;;;;;4970443;28;20239;-70
2022/06/28 00:36:44;;;;;;;19.13;14.73;;;17.70;99.90;;;;;;4971193;28;20646;-70
2022/06/28 00:39:12;;;;;;;19.48;15.40;;;17.70;99.90;;;;;;4970675;28;20208;-72
2022/06/28 00:41:41;;;;;;;17.33;14.85;;;17.60;99.90;;;;;;4970838;28;20199;-71
2022/06/28 00:44:09;;;;;;;21.60;16.45;;;17.50;99.90;;;;;;4972003;28;20181;-72
2022/06/28 00:46:34;;;;;;;19.98;15.80;;;17.50;99.90;;;;;;4971977;28;20181;-71
2022/06/28 00:49:03;;;;;;;20.05;16.73;;;17.40;99.90;;;;;;4972132;28;20798;-71
2022/06/28 00:51:29;;;;;;;20.13;16.80;;;17.50;99.90;;;;;;4972266;28;20185;-71
2022/06/28 00:53:55;;;;;;;19.60;15.80;;;17.50;99.90;;;;;;4972816;28;20271;-71
2022/06/28 00:56:22;;;;;;;17.67;15.52;;;17.50;99.90;;;;;;4971100;28;20187;-73
2022/06/28 00:58:48;;;;;;;17.17;15.40;;;17.50;99.90;;;;;;4971694;28;20173;-73
2022/06/28 01:01:14;;;;;;;14.85;13.32;;;17.60;99.90;;;;;;4972654;28;20223;-73
2022/06/28 01:03:49;;;;;;;12.38;11.18;;;17.60;99.90;;;;;;4974512;28;20559;-73
2022/06/28 01:06:15;;;;;;;13.30;11.75;;;17.60;99.90;;;;;;4970960;28;20652;-71
2022/06/28 01:08:45;;;;;;;12.38;11.07;;;17.50;99.90;;;;;;4972528;28;20299;-70
2022/06/28 01:11:21;;;;;;;11.90;10.57;;;17.50;99.90;;;;;;4972631;28;20173;-72
2022/06/28 01:13:52;;;;;;;12.93;10.55;;;17.50;99.90;;;;;;4968406;28;20184;-71
2022/06/28 01:16:19;;;;;;;11.10;10.00;;;17.40;99.90;;;;;;4968449;28;20181;-71
2022/06/28 01:18:45;;;;;;;10.60;9.60;;;17.50;99.90;;;;;;4967437;28;20272;-71
2022/06/28 01:21:16;;;;;;;10.20;9.15;;;17.50;99.90;;;;;;4968134;28;20213;-73
2022/06/28 01:23:43;;;;;;;10.07;9.07;;;17.40;99.90;;;;;;4968492;28;20177;-70
2022/06/28 01:26:11;;;;;;;10.88;8.05;;;17.40;99.90;;;;;;4950680;28;20189;-72
2022/06/28 01:28:38;;;;;;;9.25;7.78;;;17.50;99.90;;;;;;4967403;28;20188;-71
2022/06/28 01:31:04;;;;;;;7.85;7.10;;;17.50;99.90;;;;;;4968031;28;20212;-72
2022/06/28 01:33:31;;;;;;;9.15;7.25;;;17.50;99.90;;;;;;4968077;28;20267;-72
2022/06/28 01:35:56;;;;;;;8.95;6.70;;;17.50;99.90;;;;;;4968131;28;20192;-71
2022/06/28 01:38:23;;;;;;;9.50;6.75;;;17.50;99.90;;;;;;4967216;28;20193;-72
2022/06/28 01:40:49;;;;;;;7.45;6.75;;;17.50;95.40;;;;;;4967163;28;20289;-72
2022/06/28 01:43:15;;;;;;;7.03;6.25;;;17.50;98.90;;;;;;4967458;28;20177;-72
2022/06/28 01:45:42;;;;;;;6.50;5.78;;;17.50;89.40;;;;;;4967474;28;20231;-71
2022/06/28 01:48:08;;;;;;;6.70;6.07;;;17.40;92.10;;;;;;4967423;28;20267;-71
2022/06/28 01:50:34;;;;;;;7.35;6.30;;;17.40;88.80;;;;;;4949917;28;20220;-72
2022/06/28 01:53:00;;;;;;;6.88;6.03;;;17.40;81.00;;;;;;4968251;28;20177;-70
2022/06/28 01:55:26;;;;;;;7.43;5.65;;;17.30;73.70;;;;;;4970500;28;20308;-72
2022/06/28 01:57:51;;;;;;;7.13;6.43;;;17.20;90.80;;;;;;4970581;28;20220;-70
2022/06/28 02:00:17;;;;;;;6.60;5.93;;;17.30;60.00;;;;;;4971106;28;20228;-70
2022/06/28 02:02:43;;;;;;;7.03;6.28;;;17.30;64.60;;;;;;4969372;28;20185;-73
2022/06/28 02:05:09;;;;;;;7.60;6.30;;;17.30;76.60;;;;;;4969769;28;20650;-73
2022/06/28 02:07:35;;;;;;;7.82;6.43;;;17.40;51.60;;;;;;4970428;28;20696;-72
2022/06/28 02:10:02;;;;;;;6.53;5.75;;;17.30;39.40;;;;;;4967769;28;20267;-72
2022/06/28 02:12:28;;;;;;;7.50;6.35;;;17.30;44.60;;;;;;4968291;28;20193;-72
2022/06/28 02:15:01;;;;;;;7.50;5.78;;;17.20;42.90;;;;;;4967536;28;20181;-71
2022/06/28 02:17:26;;;;;;;6.70;5.88;;;17.20;47.60;;;;;;4967452;28;20514;-73
2022/06/28 02:19:53;;;;;;;6.72;6.03;;;17.10;53.50;;;;;;4949763;28;20219;-71
2022/06/28 02:22:22;;;;;;;6.25;5.70;;;17.10;73.90;;;;;;4967262;28;20185;-73
2022/06/28 02:24:48;;;;;;;6.90;6.28;;;17.20;58.20;;;;;;4951414;28;20192;-72
2022/06/28 02:27:14;;;;;;;6.80;5.95;;;17.20;57.40;;;;;;4950844;28;20188;-72
2022/06/28 02:29:40;;;;;;;8.23;5.70;;;17.20;40.70;;;;;;4968068;28;20219;-71
2022/06/28 02:32:06;;;;;;;6.88;5.82;;;17.20;52.60;;;;;;4968002;28;20260;-73
2022/06/28 02:42:47;;;;;;;5.70;5.20;;;17.20;47.50;;;;;;4968011;28;20556;-71
2022/06/28 02:45:13;;;;;;;8.73;5.60;;;17.10;20.10;;;;;;4967499;28;20563;-73
2022/06/28 02:47:38;;;;;;;5.82;5.22;;;17.00;48.80;;;;;;4967439;28;20193;-71
2022/06/28 02:50:05;;;;;;;5.78;5.28;;;17.10;43.50;;;;;;4949582;28;20224;-70
2022/06/28 02:52:30;;;;;;;6.82;5.80;;;17.10;42.40;;;;;;4967001;28;20184;-71
2022/06/28 02:54:56;;;;;;;6.43;5.68;;;17.00;42.60;;;;;;4966684;28;20556;-71
2022/06/28 02:57:21;;;;;;;5.90;5.32;;;16.90;61.30;;;;;;4966882;28;20181;-72
2022/06/28 02:59:47;;;;;;;6.50;5.72;;;16.80;80.90;;;;;;4948961;28;20212;-72
2022/06/28 03:02:13;;;;;;;7.50;6.80;;;16.80;77.80;;;;;;4949658;28;20629;-73
2022/06/28 03:04:38;;;;;;;6.90;5.75;;;16.70;79.10;;;;;;4966488;28;20188;-72
2022/06/28 03:07:04;;;;;;;6.30;5.70;;;16.60;99.90;;;;;;4966167;28;20196;-71
2022/06/28 03:09:29;;;;;;;6.35;5.75;;;16.50;95.80;;;;;;4965832;28;20706;-71
2022/06/28 03:11:55;;;;;;;6.35;5.75;;;16.50;99.90;;;;;;4966387;28;20671;-71
2022/06/28 03:14:21;;;;;;;6.68;5.93;;;16.40;99.90;;;;;;4964975;28;20691;-71
2022/06/28 03:16:46;;;;;;;8.02;6.13;;;16.40;99.90;;;;;;4963682;28;20555;-73
2022/06/28 03:19:12;;;;;;;6.32;5.72;;;16.40;99.90;;;;;;4964167;28;20240;-71
2022/06/28 03:21:38;;;;;;;6.13;5.53;;;16.40;99.90;;;;;;4946908;28;20196;-73
2022/06/28 03:24:03;;;;;;;6.97;6.07;;;16.40;99.90;;;;;;4964838;28;20228;-70
2022/06/28 03:26:29;;;;;;;6.07;5.47;;;16.40;99.90;;;;;;4965528;28;20607;-73
2022/06/28 03:28:55;;;;;;;5.70;5.13;;;16.60;99.90;;;;;;4963080;28;20559;-71
2022/06/28 03:31:20;;;;;;;5.82;5.20;;;16.60;99.90;;;;;;4965390;28;20549;-74
2022/06/28 03:33:46;;;;;;;7.28;5.85;;;16.60;99.90;;;;;;4946557;28;20189;-73
2022/06/28 03:36:11;;;;;;;6.22;5.63;;;16.60;99.30;;;;;;4947314;28;20280;-70
2022/06/28 03:38:37;;;;;;;6.22;5.63;;;16.60;92.70;;;;;;4964642;28;20189;-71
2022/06/28 03:41:02;;;;;;;5.47;4.97;;;16.50;90.20;;;;;;4948195;28;20231;-71
2022/06/28 03:43:28;;;;;;;5.70;5.13;;;16.50;79.20;;;;;;4948617;28;20299;-71
2022/06/28 03:45:54;;;;;;;5.05;4.60;;;16.60;62.40;;;;;;4965681;28;20193;-71
2022/06/28 03:48:19;;;;;;;5.60;4.72;;;16.60;53.00;;;;;;4965054;28;20217;-71
2022/06/28 03:50:45;;;;;;;4.78;4.03;;;16.50;42.50;;;;;;4965089;28;20635;-71
2022/06/28 03:53:10;;;;;;;5.95;4.38;;;16.50;27.20;;;;;;4965798;28;20555;-71
2022/06/28 03:55:36;;;;;;;4.13;3.72;;;16.60;27.70;;;;;;4965277;28;20220;-71
2022/06/28 03:58:01;;;;;;;4.50;4.10;;;16.60;17.80;;;;;;4965196;28;20197;-71
2022/06/28 04:00:27;;;;;;;4.88;4.47;;;16.50;12.00;;;;;;4965264;28;20243;-70
2022/06/28 04:02:53;;;;;;;5.13;4.13;;;16.50;29.70;;;;;;4965564;28;20193;-71
2022/06/28 04:05:18;;;;;;;4.00;3.60;;;16.60;11.40;;;;;;4965420;28;20217;-71
2022/06/28 04:07:44;;;;;;;6.88;3.55;;;16.60;23.90;;;;;;4965119;28;20199;-72
2022/06/28 04:10:10;;;;;;;5.18;3.75;;;16.60;17.50;;;;;;4949016;28;20266;-72
2022/06/28 04:12:35;;;;;;;4.07;3.72;;;16.60;1.00;;;;;;4969356;28;20173;-71
2022/06/28 04:15:01;;;;;;;4.28;3.63;;;16.60;1.00;;;;;;4969147;28;20200;-71
2022/06/28 04:17:26;;;;;;;5.47;3.83;;;16.60;1.00;;;;;;4968690;28;20594;-71
2022/06/28 04:19:52;;;;;;;3.75;3.45;;;16.60;1.00;;;;;;4968685;28;21120;-70
2022/06/28 04:22:18;;;;;;;4.03;3.70;;;16.50;1.00;;;;;;4952076;28;20201;-71
2022/06/28 04:24:43;;;;;;;5.18;3.63;;;16.50;1.00;;;;;;4968902;28;20251;-70
2022/06/28 04:27:09;;;;;;;4.18;3.50;;;16.60;11.50;;;;;;4969077;28;20723;-70
2022/06/28 04:29:34;;;;;;;4.68;3.35;;;16.50;1.00;;;;;;4967962;28;20209;-71
2022/06/28 04:32:00;;;;;;;3.90;3.38;;;16.50;1.00;;;;;;4969263;28;20185;-70
2022/06/28 04:34:25;;;;;;;3.80;3.47;;;16.40;4.80;;;;;;4968837;28;20631;-71
2022/06/28 04:36:51;;;;;;;4.43;3.42;;;16.40;1.00;;;;;;4968626;28;20263;-71
2022/06/28 04:39:17;;;;;;;4.82;4.32;;;16.40;7.80;;;;;;4967631;28;20287;-71
2022/06/28 04:41:42;;;;;;;4.78;4.28;;;16.40;1.00;;;;;;4968340;28;20192;-71
2022/06/28 04:44:08;;;;;;;4.07;3.67;;;16.30;1.00;;;;;;4968968;28;20184;-71
2022/06/28 04:46:33;;;;;;;4.68;4.15;;;16.40;1.00;;;;;;4968843;28;20263;-71
2022/06/28 04:48:59;;;;;;;5.93;4.47;;;16.50;1.00;;;;;;4967762;28;20219;-70
2022/06/28 04:51:25;;;;;;;6.13;5.53;;;16.50;1.00;;;;;;4950503;28;20185;-71
2022/06/28 04:53:51;;;;;;;5.78;5.18;;;16.40;1.00;;;;;;4968632;28;20185;-71
2022/06/28 04:56:17;;;;;;;5.43;4.93;;;16.40;1.00;;;;;;4950902;28;20181;-69
2022/06/28 04:58:43;;;;;;;5.85;5.13;;;16.50;1.00;;;;;;4968004;28;20196;-71
2022/06/28 05:01:09;;;;;;;7.15;5.13;;;16.40;1.00;;;;;;4968072;28;20205;-71
2022/06/28 05:03:34;;;;;;;5.93;5.40;;;16.40;1.00;;;;;;4968625;28;20212;-71
2022/06/28 05:06:00;;;;;;;5.70;5.20;;;16.30;1.00;;;;;;4968035;28;20199;-71
2022/06/28 05:08:26;;;;;;;5.43;4.93;;;16.30;1.00;;;;;;4967463;28;20193;-71
2022/06/28 05:10:51;;;;;;;5.30;4.78;;;16.30;1.00;;;;;;4964749;28;20719;-71
2022/06/28 05:13:17;;;;;;;5.03;4.63;;;16.30;1.00;;;;;;4967008;28;20185;-70
2022/06/28 05:15:42;;;;;;;5.53;5.03;;;16.40;1.00;;;;;;4966757;28;20185;-70
2022/06/28 05:18:08;;;;;;;6.03;5.40;;;16.40;1.00;;;;;;4966172;28;20189;-70
2022/06/28 05:20:34;;;;;;;6.00;5.43;;;16.40;1.00;;;;;;4963949;28;20213;-71
2022/06/28 05:22:59;;;;;;;6.00;5.40;;;16.40;1.00;;;;;;4967348;28;20204;-71
2022/06/28 05:25:25;;;;;;;6.63;5.30;;;16.30;1.00;;;;;;4949637;28;20196;-70
2022/06/28 05:27:51;;;;;;;6.43;5.63;;;16.30;1.00;;;;;;4966755;28;20196;-71
2022/06/28 05:30:17;;;;;;;6.65;5.22;;;16.40;1.00;;;;;;4965832;28;20217;-70
2022/06/28 05:32:43;;;;;;;6.63;6.03;;;16.30;1.00;;;;;;4967440;28;20188;-70
2022/06/28 05:35:09;;;;;;;6.32;5.35;;;16.40;1.00;;;;;;4967454;28;20189;-71
2022/06/28 05:37:34;;;;;;;6.53;5.90;;;16.50;1.00;;;;;;4966522;28;20185;-71
2022/06/28 05:40:00;;;;;;;6.20;5.63;;;16.60;1.00;;;;;;4966509;28;20251;-72
2022/06/28 05:42:26;;;;;;;6.55;5.75;;;16.70;1.00;;;;;;4967046;28;20191;-71
2022/06/28 05:44:52;;;;;;;8.70;6.97;;;16.60;1.00;;;;;;4966361;28;20189;-72
2022/06/28 05:47:17;;;;;;;6.78;5.40;;;16.80;1.00;;;;;;4966867;28;20655;-71
2022/06/28 05:49:43;;;;;;;6.45;5.82;;;16.90;1.00;;;;;;4966911;28;20776;-72
2022/06/28 05:52:08;;;;;;;6.95;5.95;;;17.00;1.00;;;;;;4967377;28;20230;-72
2022/06/28 05:54:35;;;;;;;6.57;5.97;;;16.90;1.00;;;;;;4967230;28;20644;-71
2022/06/28 05:57:00;;;;;;;7.68;6.45;;;17.10;1.00;;;;;;4967517;28;20268;-70
2022/06/28 05:59:27;;;;;;;6.97;6.28;;;17.10;1.00;;;;;;4948833;28;20303;-71
2022/06/28 06:01:55;;;;;;;8.00;6.40;;;17.10;1.00;;;;;;4966861;28;20200;-71
2022/06/28 06:04:21;;;;;;;7.22;6.63;;;17.10;1.00;;;;;;4967223;28;20209;-71
2022/06/28 06:06:47;;;;;;;9.52;6.95;;;17.10;1.00;;;;;;4966815;28;20188;-72
2022/06/28 06:09:12;;;;;;;7.82;7.03;;;17.00;1.00;;;;;;4966613;28;20550;-72
2022/06/28 06:11:38;;;;;;;9.32;7.45;;;17.10;1.00;;;;;;4966791;28;20185;-70
2022/06/28 06:14:05;;;;;;;8.68;6.32;;;17.30;1.00;;;;;;4967390;28;20737;-71
2022/06/28 06:16:30;;;;;;;7.47;6.80;;;17.40;1.00;;;;;;4967142;28;20635;-69
2022/06/28 06:18:56;;;;;;;7.88;6.88;;;17.50;1.00;;;;;;4966618;28;20236;-71
2022/06/28 06:21:22;;;;;;;7.32;6.30;;;17.50;1.00;;;;;;4966536;28;20551;-71
2022/06/28 06:23:47;;;;;;;8.23;5.95;;;17.60;1.00;;;;;;4967224;28;20177;-71
2022/06/28 06:26:13;;;;;;;6.95;6.30;;;17.70;1.00;;;;;;4966664;28;20560;-71
2022/06/28 06:28:38;;;;;;;7.82;6.88;;;17.70;1.00;;;;;;4965987;28;20185;-71
2022/06/28 06:31:04;;;;;;;7.40;6.68;;;17.70;1.00;;;;;;4966475;28;20259;-70
2022/06/28 06:33:30;;;;;;;7.30;6.55;;;17.70;1.00;;;;;;4966174;28;20600;-70
2022/06/28 06:35:55;;;;;;;7.15;6.45;;;17.90;1.00;;;;;;4966733;28;20185;-72
2022/06/28 06:38:21;;;;;;;6.10;5.60;;;18.10;1.00;;;;;;4965453;28;20246;-72
2022/06/28 06:40:46;;;;;;;5.60;5.10;;;18.30;99.90;;;;;;4966773;28;20263;-71
2022/06/28 06:43:12;;;;;;;5.90;5.25;;;18.70;1.00;;;;;;4966248;28;20198;-72
2022/06/28 06:45:38;;;;;;;7.93;5.57;;;18.90;1.00;;;;;;4966163;28;20188;-70
2022/06/28 06:48:03;;;;;;;6.28;5.22;;;19.20;1.00;;;;;;4965542;28;20702;-71
2022/06/28 06:50:29;;;;;;;5.65;5.03;;;19.50;99.90;;;;;;4948630;28;20205;-70
2022/06/28 06:52:55;;;;;;;5.40;4.53;;;20.00;66.80;;;;;;4966486;28;20656;-71
2022/06/28 06:55:20;;;;;;;4.70;4.20;;;20.60;1.00;;;;;;4966724;28;20268;-71
2022/06/28 06:57:46;;;;;;;4.72;4.20;;;21.40;99.90;;;;;;4965450;28;20180;-71
2022/06/28 07:00:12;;;;;;;4.65;4.10;;;21.30;99.90;;;;;;4965992;28;20239;-72
2022/06/28 07:02:43;;;;;;;4.75;4.35;;;20.50;1.00;;;;;;4966056;28;20193;-72
2022/06/28 07:05:10;;;;;;;5.07;4.63;;;20.10;65.90;;;;;;4966267;28;20201;-70
2022/06/28 07:07:36;;;;;;;5.10;3.78;;;20.10;7.90;;;;;;4965723;28;20185;-70
2022/06/28 07:10:03;;;;;;;4.47;4.10;;;20.40;1.00;;;;;;4965825;28;20209;-70
2022/06/28 07:12:29;;;;;;;4.53;4.13;;;20.20;99.90;;;;;;4965764;28;20181;-71
2022/06/28 07:14:55;;;;;;;4.28;3.80;;;20.00;1.00;;;;;;4966548;28;20189;-70
2022/06/28 07:17:23;;;;;;;5.30;4.30;;;19.90;92.70;;;;;;4965244;28;20191;-71
2022/06/28 07:19:48;;;;;;;5.95;4.20;;;19.90;1.00;;;;;;4966043;28;20208;-72
2022/06/28 07:22:14;;;;;;;4.50;4.10;;;19.50;99.90;;;;;;4965785;28;20555;-68
2022/06/28 07:24:40;;;;;;;4.53;4.13;;;19.60;1.00;;;;;;4967323;28;21245;-70
2022/06/28 07:27:05;;;;;;;5.00;4.05;;;19.60;1.00;;;;;;4966180;28;20188;-70
2022/06/28 07:29:31;;;;;;;5.35;4.00;;;19.50;1.00;;;;;;4965564;28;20213;-70
2022/06/28 07:31:57;;;;;;;4.80;4.18;;;19.30;99.90;;;;;;4966049;28;20240;-70
2022/06/28 07:34:23;;;;;;;3.90;3.50;;;19.10;99.90;;;;;;4966121;28;20185;-69
2022/06/28 07:36:49;;;;;;;4.57;3.63;;;19.40;1.00;;;;;;4965864;28;20564;-71
2022/06/28 07:39:15;;;;;;;4.53;3.33;;;19.50;99.90;;;;;;4965473;28;20607;-70
2022/06/28 07:41:40;;;;;;;4.28;3.25;;;19.50;99.90;;;;;;4965950;28;20233;-72
2022/06/28 07:44:06;;;;;;;4.70;3.60;;;20.00;1.00;;;;;;4967198;28;20195;-72
2022/06/28 07:46:32;;;;;;;5.45;3.22;;;20.40;39.50;;;;;;4969770;28;20200;-71
2022/06/28 07:48:58;;;;;;;4.07;3.25;;;20.50;99.90;;;;;;4969309;28;20236;-71
2022/06/28 07:54:08;;;;;;;2.40;2.20;;;20.60;1.00;;;;;;4969890;28;20264;-71
2022/06/28 07:56:34;;;;;;;4.25;2.67;;;20.70;1.00;;;;;;4969395;28;20601;-71
2022/06/28 07:58:59;;;;;;;3.72;2.50;;;20.90;59.60;;;;;;4969147;28;20204;-70
2022/06/28 08:01:26;;;;;;;2.35;2.15;;;21.10;1.00;;;;;;4969234;28;20644;-67
2022/06/28 08:03:51;;;;;;;2.75;2.42;;;21.10;1.00;;;;;;4969533;28;20189;-70
2022/06/28 08:06:17;;;;;;;4.88;2.60;;;21.20;99.90;;;;;;4969910;28;20642;-71
2022/06/28 08:08:43;;;;;;;3.60;3.17;;;21.30;99.90;;;;;;4968707;28;20195;-69
2022/06/28 08:11:09;;;;;;;3.67;2.60;;;21.10;99.90;;;;;;4969910;28;20224;-71
2022/06/28 08:13:36;;;;;;;6.00;3.55;;;20.90;99.90;;;;;;4968881;28;20196;-69
2022/06/28 08:16:01;;;;;;;3.63;2.50;;;20.90;12.30;;;;;;4969444;28;20180;-71
2022/06/28 08:18:27;;;;;;;3.70;2.53;;;20.60;99.90;;;;;;4968471;28;20177;-70
2022/06/28 08:20:53;;;;;;;3.15;2.38;;;20.70;99.90;;;;;;4969278;28;20204;-70
2022/06/28 08:23:18;;;;;;;3.60;3.08;;;20.70;99.90;;;;;;4968796;28;20602;-71
2022/06/28 08:25:46;;;;;;;3.00;2.55;;;20.60;99.90;;;;;;4969274;28;20267;-70
2022/06/28 08:28:13;;;;;;;2.70;2.50;;;20.70;1.00;;;;;;4968190;28;20554;-71
2022/06/28 08:30:40;;;;;;;3.30;2.95;;;21.00;1.00;;;;;;4968571;28;20264;-72
2022/06/28 08:33:06;;;;;;;3.17;2.85;;;21.10;99.90;;;;;;4968626;28;20181;-70
2022/06/28 08:35:32;;;;;;;3.97;2.38;;;21.20;27.40;;;;;;4968939;28;20188;-72
2022/06/28 08:37:57;;;;;;;5.07;2.35;;;21.10;1.00;;;;;;4967788;28;20235;-71
2022/06/28 08:40:25;;;;;;;4.63;2.45;;;21.20;1.00;;;;;;4968850;28;20231;-71
2022/06/28 08:42:57;;;;;;;2.92;2.40;;;21.30;1.00;;;;;;4968683;28;20664;-71
2022/06/28 08:45:23;;;;;;;2.25;2.05;;;21.20;1.00;;;;;;4968707;28;20200;-72
2022/06/28 08:47:53;;;;;;;1.90;1.70;;;21.40;1.00;;;;;;4967546;28;20495;-70
2022/06/28 08:50:40;;;;;;;2.15;1.33;;;21.40;99.90;;;;;;4968053;28;20707;-70
2022/06/28 08:53:08;;;;;;;2.72;1.63;;;21.30;99.90;;;;;;4968394;28;20189;-70
2022/06/28 08:55:35;;;;;;;2.83;1.30;;;20.90;99.90;;;;;;4967732;28;20182;-71
2022/06/28 08:58:05;;;;;;;2.25;1.40;;;21.00;99.90;;;;;;4967593;28;20185;-71
2022/06/28 09:00:31;;;;;;;1.52;1.10;;;21.00;99.90;;;;;;4968127;28;20251;-72
2022/06/28 09:02:57;;;;;;;2.53;1.20;;;21.20;78.80;;;;;;4968170;28;20188;-71
2022/06/28 09:05:25;;;;;;;2.25;1.00;;;21.30;69.10;;;;;;4968174;28;20664;-71
2022/06/28 09:07:53;;;;;;;2.08;1.13;;;21.40;41.90;;;;;;4967159;28;20193;-70
2022/06/28 09:10:19;;;;;;;1.33;1.23;;;21.30;91.70;;;;;;4967578;28;20212;-71
2022/06/28 09:12:54;;;;;;;2.58;1.30;;;21.20;99.90;;;;;;4968052;28;20212;-69
2022/06/28 09:15:24;;;;;;;1.80;1.30;;;21.10;99.90;;;;;;4967898;28;20168;-70
2022/06/28 09:17:54;;;;;;;2.35;1.25;;;21.10;99.90;;;;;;4966837;28;20282;-70
2022/06/28 09:20:19;;;;;;;1.20;1.10;;;21.00;99.90;;;;;;4967710;28;20207;-71
2022/06/28 09:22:45;;;;;;;2.17;1.33;;;21.00;99.90;;;;;;4967992;28;20193;-72
2022/06/28 09:25:27;;;;;;;2.22;1.20;;;21.00;36.20;;;;;;4967893;28;20181;-71
2022/06/28 09:27:59;;;;;;;2.20;0.80;;;21.00;31.10;;;;;;4966972;28;20188;-72
2022/06/28 09:30:26;;;;;;;1.70;0.80;;;21.00;20.90;;;;;;4967496;28;20212;-71
2022/06/28 09:32:53;;;;;;;1.45;0.90;;;21.10;63.80;;;;;;4967361;28;20552;-72
2022/06/28 09:35:19;;;;;;;1.63;0.80;;;21.30;98.60;;;;;;4967754;28;20272;-72
2022/06/28 09:37:49;;;;;;;2.63;0.82;;;21.20;99.90;;;;;;4966932;28;20271;-71
2022/06/28 09:40:18;;;;;;;1.27;0.60;;;21.10;76.00;;;;;;4967851;28;20687;-71
2022/06/28 09:43:03;;;;;;;2.63;0.82;;;21.20;88.00;;;;;;4967430;28;20204;-71
2022/06/28 09:45:29;;;;;;;1.45;0.70;;;21.10;90.30;;;;;;4967358;28;20185;-72
2022/06/28 09:47:55;;;;;;;2.38;0.80;;;21.40;30.30;;;;;;4967043;28;20200;-73
2022/06/28 09:50:23;;;;;;;1.17;0.70;;;21.50;1.00;;;;;;4967270;28;20812;-71
2022/06/28 09:52:50;;;;;;;1.17;0.60;;;21.80;1.00;;;;;;4966950;28;20223;-72
2022/06/28 09:55:16;;;;;;;1.73;0.70;;;21.50;20.40;;;;;;4968042;28;20180;-70
2022/06/28 09:57:50;;;;;;;1.85;0.70;;;21.30;34.10;;;;;;4966468;28;20184;-71
2022/06/28 10:00:20;;;;;;;2.75;0.80;;;21.30;24.00;;;;;;4966854;28;20312;-71
2022/06/28 10:02:46;;;;;;;1.58;0.70;;;21.40;10.10;;;;;;4966976;28;20188;-71
2022/06/28 10:05:12;;;;;;;1.25;0.90;;;21.60;1.00;;;;;;4967644;28;20199;-71
2022/06/28 10:07:38;;;;;;;0.98;0.75;;;21.60;1.00;;;;;;4965236;28;20185;-70
2022/06/28 10:10:06;;;;;;;0.75;0.75;;;21.50;28.20;;;;;;4967017;28;20209;-72
2022/06/28 10:15:19;;;;;;;3.05;0.90;;;21.90;1.00;;;;;;4967534;28;20706;-71
2022/06/28 10:17:53;;;;;;;0.98;0.80;;;22.00;1.60;;;;;;4965997;28;20248;-71
2022/06/28 10:20:23;;;;;;;1.83;0.80;;;22.10;9.20;;;;;;4967041;28;20311;-73
2022/06/28 10:22:49;;;;;;;1.33;0.70;;;22.10;1.00;;;;;;4966492;28;20219;-70
2022/06/28 10:25:18;;;;;;;1.42;0.90;;;22.10;1.00;;;;;;4967045;28;20259;-69
2022/06/28 10:27:45;;;;;;;1.48;0.85;;;22.20;1.00;;;;;;4966090;28;20213;-69
2022/06/28 10:30:16;;;;;;;1.88;0.80;;;22.20;1.00;;;;;;4966671;28;20224;-70
2022/06/28 10:32:46;;;;;;;1.80;1.00;;;22.20;1.00;;;;;;4966512;28;20264;-71
2022/06/28 10:35:31;;;;;;;0.93;0.70;;;22.30;1.00;;;;;;4966960;28;20259;-73
2022/06/28 10:38:08;;;;;;;1.45;1.25;;;22.50;1.00;;;;;;4965792;28;20185;-70
2022/06/28 10:40:47;;;;;;;2.03;0.68;;;22.40;1.00;;;;;;4966888;28;21387;-71
2022/06/28 10:43:14;;;;;;;1.58;0.73;;;22.50;1.00;;;;;;4966381;28;20290;-70
2022/06/28 10:46:09;;;;;;;3.00;0.80;;;22.70;1.00;;;;;;4966618;28;20231;-71
2022/06/28 10:48:50;;;;;;;3.13;1.23;;;22.60;1.00;;;;;;4953212;28;20197;-72
2022/06/28 10:51:17;;;;;;;1.45;0.80;;;22.60;1.00;;;;;;4966678;28;20223;-73
2022/06/28 10:53:55;;;;;;;1.02;0.65;;;22.50;1.00;;;;;;4965969;28;20185;-71
2022/06/28 10:56:21;;;;;;;1.13;0.90;;;22.50;1.00;;;;;;4966153;28;20240;-72
2022/06/28 10:59:08;;;;;;;1.60;0.80;;;22.60;1.00;;;;;;4965371;28;20722;-72
2022/06/28 11:01:39;;;;;;;1.63;0.80;;;22.60;1.00;;;;;;4966138;28;20236;-70
2022/06/28 11:04:12;;;;;;;2.90;0.82;;;22.60;1.00;;;;;;4966372;28;20208;-71
2022/06/28 11:06:44;;;;;;;1.77;0.80;;;22.60;1.00;;;;;;4966359;28;20185;-71
2022/06/28 11:09:28;;;;;;;1.00;0.70;;;22.50;1.00;;;;;;4965394;28;20213;-71
2022/06/28 11:12:06;;;;;;;2.13;0.70;;;22.80;1.00;;;;;;4966043;28;20536;-71
2022/06/28 11:14:44;;;;;;;3.03;1.30;;;22.80;1.00;;;;;;4966020;28;20613;-71
2022/06/28 11:17:15;;;;;;;1.27;0.88;;;22.90;1.00;;;;;;4965758;28;20196;-69
2022/06/28 11:19:50;;;;;;;1.60;0.77;;;23.10;1.00;;;;;;4965313;28;20211;-73
2022/06/28 11:22:21;;;;;;;2.22;1.08;;;23.30;1.00;;;;;;4965656;28;20181;-70
2022/06/28 11:24:47;;;;;;;1.60;0.80;;;23.30;1.00;;;;;;4966366;28;20185;-71
2022/06/28 11:27:20;;;;;;;0.80;0.73;;;23.20;1.00;;;;;;4965867;28;20192;-71
2022/06/28 11:29:47;;;;;;;2.40;0.98;;;23.20;1.00;;;;;;4965599;28;20215;-71
2022/06/28 11:32:18;;;;;;;3.00;1.00;;;23.30;1.00;;;;;;4966002;28;20184;-71
2022/06/28 11:34:44;;;;;;;1.00;0.75;;;23.40;1.00;;;;;;4965670;28;20267;-72
2022/06/28 11:37:10;;;;;;;3.00;0.75;;;23.20;1.00;;;;;;4964688;28;21391;-71
2022/06/28 11:39:35;;;;;;;2.25;1.00;;;23.00;1.00;;;;;;4948014;28;20212;-72
2022/06/28 11:42:01;;;;;;;2.67;0.80;;;22.60;1.00;;;;;;4965825;28;20181;-71
2022/06/28 11:44:27;;;;;;;2.17;0.80;;;22.70;1.00;;;;;;4966102;28;20181;-70
2022/06/28 11:46:53;;;;;;;1.30;0.80;;;22.60;1.00;;;;;;4965446;28;20185;-71
2022/06/28 11:49:30;;;;;;;2.35;1.17;;;23.00;1.00;;;;;;4965007;28;20205;-71
2022/06/28 11:51:55;;;;;;;1.65;0.70;;;23.10;1.00;;;;;;4965594;28;20247;-71
2022/06/28 11:54:21;;;;;;;2.17;0.80;;;23.20;1.00;;;;;;4948485;28;20177;-72
2022/06/28 11:56:48;;;;;;;1.45;0.77;;;23.10;1.00;;;;;;4965635;28;20193;-71
2022/06/28 11:59:15;;;;;;;5.82;1.35;;;23.10;1.00;;;;;;4964891;28;20231;-69
2022/06/28 12:01:42;;;;;;;2.03;0.90;;;23.10;1.00;;;;;;4965728;28;20281;-71
2022/06/28 12:04:09;;;;;;;2.15;1.00;;;23.20;1.00;;;;;;4965830;28;20185;-70
2022/06/28 12:06:39;;;;;;;2.47;0.88;;;23.10;1.00;;;;;;4965489;28;20177;-70
2022/06/28 12:09:14;;;;;;;1.13;0.80;;;23.10;1.00;;;;;;4964456;28;20216;-72
2022/06/28 12:11:52;;;;;;;1.75;0.88;;;23.20;1.00;;;;;;4965735;28;20211;-71
2022/06/28 12:14:30;;;;;;;1.83;1.05;;;23.40;1.00;;;;;;4965769;28;20196;-71
2022/06/28 12:16:56;;;;;;;1.20;0.75;;;23.50;1.00;;;;;;4965530;28;20235;-72
2022/06/28 12:19:26;;;;;;;1.45;0.80;;;23.60;1.00;;;;;;4964614;28;20197;-70
2022/06/28 12:22:09;;;;;;;2.03;0.90;;;23.70;1.00;;;;;;4965244;28;20181;-70
2022/06/28 12:24:40;;;;;;;1.40;0.80;;;23.90;1.00;;;;;;4964514;28;20272;-71
2022/06/28 12:27:06;;;;;;;1.00;0.88;;;23.90;1.00;;;;;;4964696;28;20200;-71
2022/06/28 12:29:32;;;;;;;1.30;0.70;;;23.40;1.00;;;;;;4963509;28;20928;-70
2022/06/28 12:31:58;;;;;;;1.58;0.77;;;23.10;1.00;;;;;;4966890;28;20252;-72
2022/06/28 12:34:23;;;;;;;0.77;0.77;;;23.00;1.00;;;;;;4967464;28;20581;-73
2022/06/28 12:36:49;;;;;;;1.27;0.65;;;23.10;1.00;;;;;;4968116;28;20189;-70
2022/06/28 12:39:14;;;;;;;1.10;0.90;;;23.30;1.00;;;;;;4964499;28;20217;-71
2022/06/28 12:41:41;;;;;;;0.80;0.70;;;22.90;1.00;;;;;;4966690;28;20189;-69
2022/06/28 12:44:07;;;;;;;1.60;0.80;;;22.80;1.00;;;;;;4966603;28;20854;-70
2022/06/28 12:46:32;;;;;;;1.33;0.75;;;23.00;1.00;;;;;;4968068;28;20639;-70
2022/06/28 12:49:00;;;;;;;1.17;0.70;;;23.20;1.00;;;;;;4966855;28;20276;-70
2022/06/28 12:51:27;;;;;;;1.60;0.95;;;23.30;1.00;;;;;;4967512;28;20208;-73
2022/06/28 12:53:52;;;;;;;2.72;0.80;;;23.40;1.00;;;;;;4967789;28;20193;-72
2022/06/28 12:56:18;;;;;;;1.75;0.77;;;23.30;1.00;;;;;;4968055;28;20176;-71
2022/06/28 12:58:45;;;;;;;1.52;0.80;;;23.50;1.00;;;;;;4966878;28;20275;-71
2022/06/28 13:01:11;;;;;;;2.72;0.90;;;23.40;1.00;;;;;;4968143;28;20691;-72
2022/06/28 13:03:37;;;;;;;1.58;0.70;;;23.20;1.00;;;;;;4967323;28;20185;-72
2022/06/28 13:06:03;;;;;;;1.85;0.70;;;23.20;1.00;;;;;;4968335;28;20196;-71
2022/06/28 13:08:29;;;;;;;2.05;0.85;;;23.20;1.00;;;;;;4949666;28;20191;-72